Bartlett, Kansas
Current Conditions -  °F | °C
As of 8:52 PM on Saturday 25 Oct 2014 (Local Time) from KCFV Reporting Station
Clear Clear  
Wind Chill: 68°   Ceiling: Unl
Heat Index: 68°   Visibility: 10mi
Dew Point: 64°   Wind: 5mph
Humidity: 87%   Direction: 140°SE
Pressure: 29.99"   Gusts: NA
Location:  37.05°N, 95.21°W
Report Text: KCFV 260152Z AUTO 14004KT 10SM CLR 20/18 A2999 RMK AO2 SLP151 T02000178
Loading
Personal Weather Stations






























Interactive Weather Map
Tropical Storm Tracking
New forecast layout! Learn more

10-Day Weather Forecast

Advertisements
Track Severe Weather on mobile